Pagina principală
METAR-TAF:

METAR-TAF

Aeroporturi :

Eugene, Oregon, Statele Unite ale Americii

Latitudine: 44-08-00N, longitudine: 123-12-52W, elevație: 111 m

Observații meteo curente

Raportul a fost făcut în urmă cu 1 oră și 3 de minute, la 03:54 UTC
Vânt 5 kt de la Vest
Temperatură 27°C
Umiditate 51%
Presiune 1014 hPa
Vizibilitate: 16.1 km
Cer senin

METAR: KEUG 140354Z 28005KT 10SM CLR 27/16 A2993 RMK AO2 SLP132 T02720156

Ora: 21:57 (04:57 UTC)

Prognoză

Raportul a fost făcut în urmă cu 5 ore și 16 de minute, la 23:41 UTC
Prognoză valabilă de la 14 ora 00 UTC la 14 ora 24 UTC
Vânt 10 kt de la Nord cu rafale de până la 20 kt
Vizibilitate: 10 km
Cer senin
De la 14 ora 0500 UTC
Vânt 5 kt din direcții variabile
Vizibilitate: 10 km
Cer senin

TAF: KEUG 132341Z 1400/1424 35010G20KT P6SM SKC FM140500 VRB05KT P6SM SKC

Observații și prognoze meteo pentru peste 4.000 de aeroporturi (rapoarte METAR și TAF).

Stațiile disponibile sunt reprezentate pe hartă prin puncte galbene și roșii.

Țineți indicatorul mouse-ului pe punctul dorit pentru a vedea denumirea stației.

Apoi, faceți clic pentru a vedea observațiile și prognozele meteorologice.

Pentru a schimba harta: Pentru mărire, faceți clic pe butoanele verzi cu cruce neagră; pentru micșorare, pe butonul verde cu o liniuță; pentru hărți învecinate, pe săgețile verzi.


METAR-TAF: